Pagrindinis puslapis
METAR-TAF:

METAR-TAF

Oro uostai :

Kunėjas, Italija

platuma: 44-32-47N, ilguma: 007-37-20E, Aukštis: 386 m

Dabartinis oras

Ataskaita buvo paskelbta 7 valandos ir 19 minutes, ne 19:50 UTC
Vėjas 4 kt iš Pietų/Pietvakarių
Temperatūra 5°C
Drėgmė 81%
Slėgis 1022 hPa
Matomumas 10 km arba daugiau
Išsisklaidę debesys ne aukštis 6000 ft

METAR: LIMZ 171950Z 20004KT 9999 SCT060 05/02 Q1022

Laikas: 04:09 (03:09 UTC)

Prognozė

Ataskaita buvo paskelbta 10 valandos ir 9 minutes, ne 17:00 UTC
Prognozė galioja nuo 17 metu 18 UTC su 18 metu 18 UTC
Vėjas 5 kt nuo kintamojo kryptimis
Matomumas: 8000 m
Išsisklaidę debesys ne aukštis 3000 ft
Su prošvaistėmis ne aukštis 6000 ft
Laikinai
nuo 17 metu 22 UTC su 18 metu 03 UTC
Matomumas: 4000 m
Su prošvaistėmis ne aukštis 1200 ft
Su prošvaistėmis ne aukštis 5000 ft
lietus

TAF: LIMZ 171700Z 1718/1818 VRB05KT 8000 SCT030 BKN060 TEMPO 1722/1803 4000 RA BKN012 BKN050

Orai ataskaitas ir orų prognozės (METAR, TAF).

turimą stotys yra geltonos ir raudonos taškus žemėlapyje.

Perkelti pele per norėdami pamatyti stoties vardą.

Tada spustelėkite, norėdami matyti oro stebėjimo ir prognozės.

Norėdami pakeisti žemėlapį: spustelėkite ant žalios mygtukų su juodo kryžiaus žemyn,; žalią mygtuką su brūkšneliu, jei norite nutolinti; arba žalių rodyklių gretimoms žemėlapius.


METAR-TAF: